sensor_id;sensor_type;location;lat;lon;timestamp;P1;durP1;ratioP1;P2;durP2;ratioP2
40793;SDS011;26502;51.886;15.604;2023-04-24T00:01:07;8.60;;;5.60;;
40793;SDS011;26502;51.886;15.604;2023-04-24T00:06:13;7.40;;;5.40;;
40793;SDS011;26502;51.886;15.604;2023-04-24T00:11:19;8.00;;;5.70;;
40793;SDS011;26502;51.886;15.604;2023-04-24T00:16:26;7.10;;;5.30;;
40793;SDS011;26502;51.886;15.604;2023-04-24T00:21:33;12.10;;;6.80;;
40793;SDS011;26502;51.886;15.604;2023-04-24T00:26:39;8.90;;;6.50;;
40793;SDS011;26502;51.886;15.604;2023-04-24T00:31:46;6.80;;;6.00;;
40793;SDS011;26502;51.886;15.604;2023-04-24T00:36:52;9.50;;;6.10;;
40793;SDS011;26502;51.886;15.604;2023-04-24T00:41:59;7.70;;;6.90;;
40793;SDS011;26502;51.886;15.604;2023-04-24T00:47:06;8.00;;;7.20;;
40793;SDS011;26502;51.886;15.604;2023-04-24T00:52:14;7.70;;;6.90;;
40793;SDS011;26502;51.886;15.604;2023-04-24T00:57:21;9.60;;;7.20;;
40793;SDS011;26502;51.886;15.604;2023-04-24T01:02:28;7.80;;;7.00;;
40793;SDS011;26502;51.886;15.604;2023-04-24T01:07:37;10.00;;;7.00;;
40793;SDS011;26502;51.886;15.604;2023-04-24T01:12:47;8.60;;;6.40;;
40793;SDS011;26502;51.886;15.604;2023-04-24T01:17:53;9.70;;;6.70;;
40793;SDS011;26502;51.886;15.604;2023-04-24T01:23:01;7.60;;;6.80;;
40793;SDS011;26502;51.886;15.604;2023-04-24T01:28:08;8.00;;;6.90;;
40793;SDS011;26502;51.886;15.604;2023-04-24T01:33:15;9.50;;;6.90;;
40793;SDS011;26502;51.886;15.604;2023-04-24T01:38:23;8.40;;;7.10;;
40793;SDS011;26502;51.886;15.604;2023-04-24T01:43:30;7.90;;;7.10;;
40793;SDS011;26502;51.886;15.604;2023-04-24T01:48:36;9.60;;;7.40;;
40793;SDS011;26502;51.886;15.604;2023-04-24T01:53:42;9.40;;;6.90;;
40793;SDS011;26502;51.886;15.604;2023-04-24T01:58:49;9.50;;;7.50;;
40793;SDS011;26502;51.886;15.604;2023-04-24T02:03:57;9.50;;;6.90;;
40793;SDS011;26502;51.886;15.604;2023-04-24T02:09:04;10.60;;;7.40;;
40793;SDS011;26502;51.886;15.604;2023-04-24T02:14:11;8.80;;;7.30;;
40793;SDS011;26502;51.886;15.604;2023-04-24T02:19:17;10.80;;;7.00;;
40793;SDS011;26502;51.886;15.604;2023-04-24T02:29:32;10.10;;;7.60;;
40793;SDS011;26502;51.886;15.604;2023-04-24T02:34:38;8.50;;;7.20;;
40793;SDS011;26502;51.886;15.604;2023-04-24T02:39:45;9.30;;;7.00;;
40793;SDS011;26502;51.886;15.604;2023-04-24T02:44:51;10.40;;;6.40;;
40793;SDS011;26502;51.886;15.604;2023-04-24T02:49:57;9.80;;;7.20;;
40793;SDS011;26502;51.886;15.604;2023-04-24T02:55:05;11.10;;;7.70;;
40793;SDS011;26502;51.886;15.604;2023-04-24T03:00:13;10.90;;;7.50;;
40793;SDS011;26502;51.886;15.604;2023-04-24T03:05:22;10.70;;;8.10;;
40793;SDS011;26502;51.886;15.604;2023-04-24T03:10:28;10.10;;;7.80;;
40793;SDS011;26502;51.886;15.604;2023-04-24T03:15:35;10.00;;;7.80;;
40793;SDS011;26502;51.886;15.604;2023-04-24T03:20:41;10.20;;;7.80;;
40793;SDS011;26502;51.886;15.604;2023-04-24T03:25:50;9.90;;;7.60;;
40793;SDS011;26502;51.886;15.604;2023-04-24T03:30:58;12.80;;;7.90;;
40793;SDS011;26502;51.886;15.604;2023-04-24T03:41:17;10.60;;;8.00;;
40793;SDS011;26502;51.886;15.604;2023-04-24T03:46:27;11.10;;;7.50;;
40793;SDS011;26502;51.886;15.604;2023-04-24T03:51:35;11.30;;;7.40;;
40793;SDS011;26502;51.886;15.604;2023-04-24T03:56:51;10.40;;;7.80;;
40793;SDS011;26502;51.886;15.604;2023-04-24T04:01:58;14.50;;;7.30;;
40793;SDS011;26502;51.886;15.604;2023-04-24T04:07:04;9.20;;;7.80;;
40793;SDS011;26502;51.886;15.604;2023-04-24T04:12:12;10.90;;;7.70;;
40793;SDS011;26502;51.886;15.604;2023-04-24T04:17:18;12.30;;;7.80;;
40793;SDS011;26502;51.886;15.604;2023-04-24T04:22:24;9.30;;;7.30;;
40793;SDS011;26502;51.886;15.604;2023-04-24T04:27:31;14.20;;;8.10;;
40793;SDS011;26502;51.886;15.604;2023-04-24T04:32:44;10.60;;;8.30;;
40793;SDS011;26502;51.886;15.604;2023-04-24T04:37:51;14.50;;;8.30;;
40793;SDS011;26502;51.886;15.604;2023-04-24T04:43:20;14.20;;;8.40;;
40793;SDS011;26502;51.886;15.604;2023-04-24T04:48:28;13.20;;;8.60;;
40793;SDS011;26502;51.886;15.604;2023-04-24T04:53:36;11.50;;;8.30;;
40793;SDS011;26502;51.886;15.604;2023-04-24T04:58:43;12.90;;;7.90;;
40793;SDS011;26502;51.886;15.604;2023-04-24T05:03:52;15.90;;;8.70;;
40793;SDS011;26502;51.886;15.604;2023-04-24T05:08:59;15.70;;;8.40;;
40793;SDS011;26502;51.886;15.604;2023-04-24T05:14:15;15.70;;;8.80;;
40793;SDS011;26502;51.886;15.604;2023-04-24T05:19:23;18.50;;;11.30;;
40793;SDS011;26502;51.886;15.604;2023-04-24T05:24:30;17.50;;;13.10;;
40793;SDS011;26502;51.886;15.604;2023-04-24T05:29:36;17.50;;;12.00;;
40793;SDS011;26502;51.886;15.604;2023-04-24T05:34:43;15.30;;;10.70;;
40793;SDS011;26502;51.886;15.604;2023-04-24T05:39:51;12.80;;;9.60;;
40793;SDS011;26502;51.886;15.604;2023-04-24T05:44:57;15.10;;;10.70;;
40793;SDS011;26502;51.886;15.604;2023-04-24T05:50:05;16.80;;;9.90;;
40793;SDS011;26502;51.886;15.604;2023-04-24T05:55:12;14.90;;;9.50;;
40793;SDS011;26502;51.886;15.604;2023-04-24T06:00:20;15.40;;;10.20;;
40793;SDS011;26502;51.886;15.604;2023-04-24T06:05:34;12.00;;;8.70;;
40793;SDS011;26502;51.886;15.604;2023-04-24T06:10:41;13.60;;;8.70;;
40793;SDS011;26502;51.886;15.604;2023-04-24T06:15:48;11.50;;;8.00;;
40793;SDS011;26502;51.886;15.604;2023-04-24T06:21:02;7.90;;;6.30;;
40793;SDS011;26502;51.886;15.604;2023-04-24T06:26:09;7.10;;;5.60;;
40793;SDS011;26502;51.886;15.604;2023-04-24T06:31:16;8.60;;;5.70;;
40793;SDS011;26502;51.886;15.604;2023-04-24T06:36:23;4.90;;;4.00;;
40793;SDS011;26502;51.886;15.604;2023-04-24T06:41:29;6.00;;;4.80;;
40793;SDS011;26502;51.886;15.604;2023-04-24T06:46:36;5.80;;;4.50;;
40793;SDS011;26502;51.886;15.604;2023-04-24T06:51:43;6.80;;;4.20;;
40793;SDS011;26502;51.886;15.604;2023-04-24T06:56:49;6.40;;;4.10;;
40793;SDS011;26502;51.886;15.604;2023-04-24T07:01:56;5.90;;;4.00;;
40793;SDS011;26502;51.886;15.604;2023-04-24T07:07:02;4.70;;;4.20;;
40793;SDS011;26502;51.886;15.604;2023-04-24T07:12:09;5.10;;;4.10;;
40793;SDS011;26502;51.886;15.604;2023-04-24T07:17:16;8.50;;;5.60;;
40793;SDS011;26502;51.886;15.604;2023-04-24T07:22:24;12.10;;;5.90;;
40793;SDS011;26502;51.886;15.604;2023-04-24T07:27:30;7.70;;;5.90;;
40793;SDS011;26502;51.886;15.604;2023-04-24T07:32:37;4.10;;;2.90;;
40793;SDS011;26502;51.886;15.604;2023-04-24T07:37:43;5.90;;;3.70;;
40793;SDS011;26502;51.886;15.604;2023-04-24T07:42:50;5.00;;;3.30;;
40793;SDS011;26502;51.886;15.604;2023-04-24T07:47:56;4.60;;;2.70;;
40793;SDS011;26502;51.886;15.604;2023-04-24T07:53:03;4.50;;;2.60;;
40793;SDS011;26502;51.886;15.604;2023-04-24T07:58:09;3.00;;;2.60;;
40793;SDS011;26502;51.886;15.604;2023-04-24T08:03:15;2.90;;;2.20;;
40793;SDS011;26502;51.886;15.604;2023-04-24T08:08:22;3.90;;;1.90;;
40793;SDS011;26502;51.886;15.604;2023-04-24T08:13:29;3.20;;;2.10;;
40793;SDS011;26502;51.886;15.604;2023-04-24T08:18:36;1.50;;;1.40;;
40793;SDS011;26502;51.886;15.604;2023-04-24T08:23:43;4.10;;;1.80;;
40793;SDS011;26502;51.886;15.604;2023-04-24T08:28:49;3.10;;;1.50;;
40793;SDS011;26502;51.886;15.604;2023-04-24T08:33:57;1.20;;;1.10;;
40793;SDS011;26502;51.886;15.604;2023-04-24T08:39:04;2.70;;;1.30;;
40793;SDS011;26502;51.886;15.604;2023-04-24T08:44:11;1.30;;;1.20;;
40793;SDS011;26502;51.886;15.604;2023-04-24T08:49:19;6.60;;;1.40;;
40793;SDS011;26502;51.886;15.604;2023-04-24T08:54:25;1.90;;;1.50;;
40793;SDS011;26502;51.886;15.604;2023-04-24T08:59:33;2.10;;;1.40;;
40793;SDS011;26502;51.886;15.604;2023-04-24T09:04:40;2.20;;;1.60;;
40793;SDS011;26502;51.886;15.604;2023-04-24T09:09:47;3.70;;;1.60;;
40793;SDS011;26502;51.886;15.604;2023-04-24T09:14:54;3.90;;;2.10;;
40793;SDS011;26502;51.886;15.604;2023-04-24T09:20:01;4.20;;;1.70;;
40793;SDS011;26502;51.886;15.604;2023-04-24T09:25:08;2.60;;;1.90;;
40793;SDS011;26502;51.886;15.604;2023-04-24T09:30:15;4.50;;;2.80;;
40793;SDS011;26502;51.886;15.604;2023-04-24T09:35:27;5.00;;;1.40;;
40793;SDS011;26502;51.886;15.604;2023-04-24T09:40:34;1.60;;;1.50;;
40793;SDS011;26502;51.886;15.604;2023-04-24T09:45:40;3.10;;;1.60;;
40793;SDS011;26502;51.886;15.604;2023-04-24T09:50:48;1.90;;;1.60;;
40793;SDS011;26502;51.886;15.604;2023-04-24T09:56:00;3.50;;;1.90;;
40793;SDS011;26502;51.886;15.604;2023-04-24T10:01:11;4.20;;;2.30;;
40793;SDS011;26502;51.886;15.604;2023-04-24T10:06:18;4.90;;;2.20;;
40793;SDS011;26502;51.886;15.604;2023-04-24T10:11:24;2.30;;;2.00;;
40793;SDS011;26502;51.886;15.604;2023-04-24T10:16:35;2.80;;;1.70;;
40793;SDS011;26502;51.886;15.604;2023-04-24T10:21:42;2.30;;;2.00;;
40793;SDS011;26502;51.886;15.604;2023-04-24T10:26:50;2.70;;;1.90;;
40793;SDS011;26502;51.886;15.604;2023-04-24T10:31:57;3.20;;;1.80;;
40793;SDS011;26502;51.886;15.604;2023-04-24T10:37:04;4.50;;;1.80;;
40793;SDS011;26502;51.886;15.604;2023-04-24T10:42:17;5.80;;;1.90;;
40793;SDS011;26502;51.886;15.604;2023-04-24T10:47:23;3.30;;;2.30;;
40793;SDS011;26502;51.886;15.604;2023-04-24T10:52:44;1.90;;;1.60;;
40793;SDS011;26502;51.886;15.604;2023-04-24T10:58:04;5.00;;;1.70;;
40793;SDS011;26502;51.886;15.604;2023-04-24T11:03:25;1.90;;;1.20;;
40793;SDS011;26502;51.886;15.604;2023-04-24T11:08:38;3.90;;;1.40;;
40793;SDS011;26502;51.886;15.604;2023-04-24T11:19:10;2.00;;;1.40;;
40793;SDS011;26502;51.886;15.604;2023-04-24T11:24:26;2.00;;;1.40;;
40793;SDS011;26502;51.886;15.604;2023-04-24T11:29:41;2.80;;;1.20;;
40793;SDS011;26502;51.886;15.604;2023-04-24T11:34:50;4.20;;;1.20;;
40793;SDS011;26502;51.886;15.604;2023-04-24T11:39:57;2.40;;;1.00;;
40793;SDS011;26502;51.886;15.604;2023-04-24T11:45:08;2.70;;;1.40;;
40793;SDS011;26502;51.886;15.604;2023-04-24T11:50:17;4.60;;;1.90;;
40793;SDS011;26502;51.886;15.604;2023-04-24T11:55:26;3.60;;;1.30;;
40793;SDS011;26502;51.886;15.604;2023-04-24T12:00:33;1.60;;;1.50;;
40793;SDS011;26502;51.886;15.604;2023-04-24T12:05:41;3.80;;;1.50;;
40793;SDS011;26502;51.886;15.604;2023-04-24T12:10:48;2.00;;;1.40;;
40793;SDS011;26502;51.886;15.604;2023-04-24T12:26:23;2.70;;;1.70;;
40793;SDS011;26502;51.886;15.604;2023-04-24T12:31:29;2.40;;;2.00;;
40793;SDS011;26502;51.886;15.604;2023-04-24T12:36:36;4.40;;;1.60;;
40793;SDS011;26502;51.886;15.604;2023-04-24T12:41:50;3.40;;;1.70;;
40793;SDS011;26502;51.886;15.604;2023-04-24T12:47:01;3.30;;;2.90;;
40793;SDS011;26502;51.886;15.604;2023-04-24T12:52:07;1.80;;;1.30;;
40793;SDS011;26502;51.886;15.604;2023-04-24T12:57:13;3.10;;;1.80;;
40793;SDS011;26502;51.886;15.604;2023-04-24T13:02:19;3.60;;;1.70;;
40793;SDS011;26502;51.886;15.604;2023-04-24T13:07:26;2.90;;;1.50;;
40793;SDS011;26502;51.886;15.604;2023-04-24T13:12:33;5.00;;;2.80;;
40793;SDS011;26502;51.886;15.604;2023-04-24T13:17:41;2.70;;;2.20;;
40793;SDS011;26502;51.886;15.604;2023-04-24T13:22:47;1.80;;;1.60;;
40793;SDS011;26502;51.886;15.604;2023-04-24T13:27:53;2.50;;;1.40;;
40793;SDS011;26502;51.886;15.604;2023-04-24T13:33:00;2.10;;;1.50;;
40793;SDS011;26502;51.886;15.604;2023-04-24T13:38:06;3.20;;;1.10;;
40793;SDS011;26502;51.886;15.604;2023-04-24T13:43:12;3.00;;;1.40;;
40793;SDS011;26502;51.886;15.604;2023-04-24T13:48:19;2.00;;;1.20;;
40793;SDS011;26502;51.886;15.604;2023-04-24T13:53:25;1.60;;;1.00;;
40793;SDS011;26502;51.886;15.604;2023-04-24T13:58:33;3.50;;;1.10;;
40793;SDS011;26502;51.886;15.604;2023-04-24T14:03:39;2.00;;;0.90;;
40793;SDS011;26502;51.886;15.604;2023-04-24T14:08:46;4.10;;;1.30;;
40793;SDS011;26502;51.886;15.604;2023-04-24T14:13:53;4.70;;;1.30;;
40793;SDS011;26502;51.886;15.604;2023-04-24T14:19:00;3.30;;;1.30;;
40793;SDS011;26502;51.886;15.604;2023-04-24T14:24:08;3.10;;;1.20;;
40793;SDS011;26502;51.886;15.604;2023-04-24T14:29:14;2.60;;;1.60;;
40793;SDS011;26502;51.886;15.604;2023-04-24T14:34:20;2.70;;;1.90;;
40793;SDS011;26502;51.886;15.604;2023-04-24T14:39:26;3.70;;;1.60;;
40793;SDS011;26502;51.886;15.604;2023-04-24T14:44:40;1.50;;;1.30;;
40793;SDS011;26502;51.886;15.604;2023-04-24T14:49:46;2.50;;;1.50;;
40793;SDS011;26502;51.886;15.604;2023-04-24T14:55:01;2.30;;;1.50;;
40793;SDS011;26502;51.886;15.604;2023-04-24T15:00:15;2.60;;;1.40;;
40793;SDS011;26502;51.886;15.604;2023-04-24T15:05:24;3.30;;;1.20;;
40793;SDS011;26502;51.886;15.604;2023-04-24T15:10:31;3.30;;;2.00;;
40793;SDS011;26502;51.886;15.604;2023-04-24T15:15:37;3.20;;;1.70;;
40793;SDS011;26502;51.886;15.604;2023-04-24T15:20:43;2.70;;;1.70;;
40793;SDS011;26502;51.886;15.604;2023-04-24T15:25:49;3.30;;;2.10;;
40793;SDS011;26502;51.886;15.604;2023-04-24T15:30:55;2.30;;;1.90;;
40793;SDS011;26502;51.886;15.604;2023-04-24T15:36:02;4.20;;;2.10;;
40793;SDS011;26502;51.886;15.604;2023-04-24T15:41:11;3.50;;;2.70;;
40793;SDS011;26502;51.886;15.604;2023-04-24T15:46:24;2.80;;;1.60;;
40793;SDS011;26502;51.886;15.604;2023-04-24T15:51:30;1.80;;;1.60;;
40793;SDS011;26502;51.886;15.604;2023-04-24T15:56:36;3.40;;;2.00;;
40793;SDS011;26502;51.886;15.604;2023-04-24T16:01:43;3.90;;;2.30;;
40793;SDS011;26502;51.886;15.604;2023-04-24T16:06:50;4.20;;;3.00;;
40793;SDS011;26502;51.886;15.604;2023-04-24T16:11:57;6.30;;;3.80;;
40793;SDS011;26502;51.886;15.604;2023-04-24T16:17:03;2.00;;;1.80;;
40793;SDS011;26502;51.886;15.604;2023-04-24T16:22:09;2.70;;;2.10;;
40793;SDS011;26502;51.886;15.604;2023-04-24T16:27:16;11.00;;;6.20;;
40793;SDS011;26502;51.886;15.604;2023-04-24T16:32:23;2.70;;;1.90;;
40793;SDS011;26502;51.886;15.604;2023-04-24T16:37:29;3.80;;;1.70;;
40793;SDS011;26502;51.886;15.604;2023-04-24T16:42:35;1.50;;;1.30;;
40793;SDS011;26502;51.886;15.604;2023-04-24T16:47:42;1.80;;;1.20;;
40793;SDS011;26502;51.886;15.604;2023-04-24T16:52:49;1.30;;;1.20;;
40793;SDS011;26502;51.886;15.604;2023-04-24T16:57:55;1.60;;;1.50;;
40793;SDS011;26502;51.886;15.604;2023-04-24T17:03:01;4.00;;;2.20;;
40793;SDS011;26502;51.886;15.604;2023-04-24T17:08:07;2.30;;;1.80;;
40793;SDS011;26502;51.886;15.604;2023-04-24T17:13:13;1.80;;;1.50;;
40793;SDS011;26502;51.886;15.604;2023-04-24T17:18:21;2.00;;;1.70;;
40793;SDS011;26502;51.886;15.604;2023-04-24T17:23:27;1.70;;;1.30;;
40793;SDS011;26502;51.886;15.604;2023-04-24T17:28:35;2.20;;;1.50;;
40793;SDS011;26502;51.886;15.604;2023-04-24T17:33:41;1.90;;;1.40;;
40793;SDS011;26502;51.886;15.604;2023-04-24T17:38:47;4.90;;;3.40;;
40793;SDS011;26502;51.886;15.604;2023-04-24T17:43:55;2.40;;;1.60;;
40793;SDS011;26502;51.886;15.604;2023-04-24T17:49:02;1.90;;;1.60;;
40793;SDS011;26502;51.886;15.604;2023-04-24T17:54:08;2.70;;;1.40;;
40793;SDS011;26502;51.886;15.604;2023-04-24T17:59:15;2.90;;;2.00;;
40793;SDS011;26502;51.886;15.604;2023-04-24T18:04:22;7.20;;;4.50;;
40793;SDS011;26502;51.886;15.604;2023-04-24T18:09:28;5.80;;;3.20;;
40793;SDS011;26502;51.886;15.604;2023-04-24T18:14:34;13.90;;;6.40;;
40793;SDS011;26502;51.886;15.604;2023-04-24T18:19:40;10.10;;;6.40;;
40793;SDS011;26502;51.886;15.604;2023-04-24T18:24:47;20.10;;;8.20;;
40793;SDS011;26502;51.886;15.604;2023-04-24T18:29:53;11.40;;;7.70;;
40793;SDS011;26502;51.886;15.604;2023-04-24T18:34:59;10.70;;;7.10;;
40793;SDS011;26502;51.886;15.604;2023-04-24T18:40:07;13.80;;;10.00;;
40793;SDS011;26502;51.886;15.604;2023-04-24T18:45:14;13.30;;;8.20;;
40793;SDS011;26502;51.886;15.604;2023-04-24T18:50:21;18.20;;;13.00;;
40793;SDS011;26502;51.886;15.604;2023-04-24T18:55:28;18.80;;;13.30;;
40793;SDS011;26502;51.886;15.604;2023-04-24T19:00:35;20.30;;;13.90;;
40793;SDS011;26502;51.886;15.604;2023-04-24T19:05:41;16.80;;;11.60;;
40793;SDS011;26502;51.886;15.604;2023-04-24T19:10:47;16.20;;;11.90;;
40793;SDS011;26502;51.886;15.604;2023-04-24T19:15:54;18.00;;;11.70;;
40793;SDS011;26502;51.886;15.604;2023-04-24T19:20:59;17.80;;;13.80;;
40793;SDS011;26502;51.886;15.604;2023-04-24T19:26:06;18.60;;;15.10;;
40793;SDS011;26502;51.886;15.604;2023-04-24T19:31:13;24.80;;;18.40;;
40793;SDS011;26502;51.886;15.604;2023-04-24T19:36:19;14.60;;;7.40;;
40793;SDS011;26502;51.886;15.604;2023-04-24T19:41:26;7.80;;;5.00;;
40793;SDS011;26502;51.886;15.604;2023-04-24T19:46:32;7.30;;;5.00;;
40793;SDS011;26502;51.886;15.604;2023-04-24T19:51:38;6.00;;;4.30;;
40793;SDS011;26502;51.886;15.604;2023-04-24T19:56:44;7.10;;;4.40;;
40793;SDS011;26502;51.886;15.604;2023-04-24T20:01:51;5.50;;;3.50;;
40793;SDS011;26502;51.886;15.604;2023-04-24T20:06:57;5.30;;;3.00;;
40793;SDS011;26502;51.886;15.604;2023-04-24T20:12:04;4.60;;;2.60;;
40793;SDS011;26502;51.886;15.604;2023-04-24T20:17:10;6.10;;;3.60;;
40793;SDS011;26502;51.886;15.604;2023-04-24T20:22:16;4.70;;;2.50;;
40793;SDS011;26502;51.886;15.604;2023-04-24T20:27:22;4.50;;;2.50;;
40793;SDS011;26502;51.886;15.604;2023-04-24T20:32:29;3.70;;;2.40;;
40793;SDS011;26502;51.886;15.604;2023-04-24T20:37:35;2.00;;;1.40;;
40793;SDS011;26502;51.886;15.604;2023-04-24T20:42:42;2.10;;;1.40;;
40793;SDS011;26502;51.886;15.604;2023-04-24T20:47:49;1.80;;;1.50;;
40793;SDS011;26502;51.886;15.604;2023-04-24T20:52:55;2.10;;;1.60;;
40793;SDS011;26502;51.886;15.604;2023-04-24T20:58:00;1.90;;;1.30;;
40793;SDS011;26502;51.886;15.604;2023-04-24T21:03:07;4.40;;;1.60;;
40793;SDS011;26502;51.886;15.604;2023-04-24T21:08:13;5.60;;;3.60;;
40793;SDS011;26502;51.886;15.604;2023-04-24T21:13:19;12.20;;;8.00;;
40793;SDS011;26502;51.886;15.604;2023-04-24T21:18:25;8.60;;;4.20;;
40793;SDS011;26502;51.886;15.604;2023-04-24T21:23:32;9.80;;;1.90;;
40793;SDS011;26502;51.886;15.604;2023-04-24T21:28:38;3.60;;;1.80;;
40793;SDS011;26502;51.886;15.604;2023-04-24T21:33:44;1.90;;;1.60;;
40793;SDS011;26502;51.886;15.604;2023-04-24T21:38:50;3.10;;;1.30;;
40793;SDS011;26502;51.886;15.604;2023-04-24T21:43:57;2.00;;;1.00;;
40793;SDS011;26502;51.886;15.604;2023-04-24T21:49:04;0.70;;;0.70;;
40793;SDS011;26502;51.886;15.604;2023-04-24T21:54:10;1.20;;;0.80;;
40793;SDS011;26502;51.886;15.604;2023-04-24T21:59:16;0.80;;;0.70;;
40793;SDS011;26502;51.886;15.604;2023-04-24T22:04:23;1.30;;;0.70;;
40793;SDS011;26502;51.886;15.604;2023-04-24T22:09:29;0.70;;;0.70;;
40793;SDS011;26502;51.886;15.604;2023-04-24T22:14:36;0.90;;;0.70;;
40793;SDS011;26502;51.886;15.604;2023-04-24T22:19:42;0.80;;;0.70;;
40793;SDS011;26502;51.886;15.604;2023-04-24T22:24:48;0.50;;;0.50;;
40793;SDS011;26502;51.886;15.604;2023-04-24T22:29:54;0.40;;;0.40;;
40793;SDS011;26502;51.886;15.604;2023-04-24T22:35:01;2.70;;;1.00;;
40793;SDS011;26502;51.886;15.604;2023-04-24T22:40:08;0.70;;;0.70;;
40793;SDS011;26502;51.886;15.604;2023-04-24T22:45:14;0.70;;;0.70;;
40793;SDS011;26502;51.886;15.604;2023-04-24T22:50:21;0.60;;;0.60;;
40793;SDS011;26502;51.886;15.604;2023-04-24T22:55:27;2.30;;;0.60;;
40793;SDS011;26502;51.886;15.604;2023-04-24T23:00:34;0.70;;;0.70;;
40793;SDS011;26502;51.886;15.604;2023-04-24T23:05:40;0.60;;;0.60;;
40793;SDS011;26502;51.886;15.604;2023-04-24T23:10:46;0.80;;;0.80;;
40793;SDS011;26502;51.886;15.604;2023-04-24T23:15:52;0.70;;;0.60;;
40793;SDS011;26502;51.886;15.604;2023-04-24T23:20:58;1.80;;;0.60;;
40793;SDS011;26502;51.886;15.604;2023-04-24T23:26:05;2.20;;;0.70;;
40793;SDS011;26502;51.886;15.604;2023-04-24T23:31:11;0.70;;;0.70;;
40793;SDS011;26502;51.886;15.604;2023-04-24T23:36:18;0.80;;;0.80;;
40793;SDS011;26502;51.886;15.604;2023-04-24T23:41:24;1.40;;;0.80;;
40793;SDS011;26502;51.886;15.604;2023-04-24T23:46:30;0.90;;;0.90;;
40793;SDS011;26502;51.886;15.604;2023-04-24T23:51:36;1.20;;;1.10;;
40793;SDS011;26502;51.886;15.604;2023-04-24T23:56:43;1.10;;;1.00;;
